Time;durP1;ratioP1;P1;durP2;ratioP2;P2;SDS_P1;SDS_P2;PMS_P1;PMS_P2;Temp;Humidity;BMP_temperature;BMP_pressure;BME280_temperature;BME280_humidity;BME280_pressure;Samples;Min_cycle;Max_cycle;Signal;HPM_P1;HPM_P2
2020/12/02 00:01:17;;;;;;;15.17;8.43;;;;;;;;;;5029254;28;20220;-78
2020/12/02 00:03:50;;;;;;;13.93;8.10;;;;;;;;;;5027373;28;20224;-78
2020/12/02 00:06:19;;;;;;;12.73;8.20;;;;;;;;;;5028877;28;20206;-78
2020/12/02 00:08:50;;;;;;;14.13;8.00;;;;;;;;;;5031704;28;20208;-78
2020/12/02 00:11:19;;;;;;;13.00;8.70;;;;;;;;;;5024472;28;20235;-78
2020/12/02 00:13:48;;;;;;;14.53;8.67;;;;;;;;;;5028824;28;20215;-78
2020/12/02 00:16:23;;;;;;;16.30;8.80;;;;;;;;;;5035969;28;20208;-79
2020/12/02 00:18:51;;;;;;;15.17;8.67;;;;;;;;;;5025605;28;20577;-78
2020/12/02 00:21:19;;;;;;;15.13;9.27;;;;;;;;;;5035987;28;20243;-79
2020/12/02 00:23:47;;;;;;;18.23;9.53;;;;;;;;;;5039834;28;20207;-78
2020/12/02 00:26:15;;;;;;;14.97;7.77;;;;;;;;;;5034596;28;20222;-79
2020/12/02 00:28:44;;;;;;;15.03;9.07;;;;;;;;;;5031903;28;20208;-79
2020/12/02 00:31:12;;;;;;;16.83;9.73;;;;;;;;;;5039551;28;20244;-79
2020/12/02 00:33:40;;;;;;;16.83;9.33;;;;;;;;;;5061136;28;20221;-78
2020/12/02 00:36:08;;;;;;;16.97;9.00;;;;;;;;;;5036861;28;20211;-76
2020/12/02 00:38:35;;;;;;;17.03;9.13;;;;;;;;;;5024810;28;20246;-79
2020/12/02 00:41:03;;;;;;;18.97;10.07;;;;;;;;;;5021378;28;20223;-78
2020/12/02 00:43:31;;;;;;;18.10;10.07;;;;;;;;;;5010395;28;20226;-79
2020/12/02 00:46:01;;;;;;;18.43;9.80;;;;;;;;;;5012353;28;20208;-78
2020/12/02 00:48:31;;;;;;;16.63;9.77;;;;;;;;;;4999401;28;20212;-78
2020/12/02 00:51:00;;;;;;;20.03;10.20;;;;;;;;;;5051497;28;20239;-79
2020/12/02 00:53:30;;;;;;;17.57;9.40;;;;;;;;;;5037751;28;20585;-78
2020/12/02 00:55:58;;;;;;;16.80;9.47;;;;;;;;;;5032458;28;20219;-78
2020/12/02 00:58:41;;;;;;;17.43;9.80;;;;;;;;;;5007061;28;20219;-79
2020/12/02 01:01:14;;;;;;;17.87;9.87;;;;;;;;;;5031592;28;20223;-79
2020/12/02 01:03:42;;;;;;;18.73;9.87;;;;;;;;;;5042463;28;20212;-79
2020/12/02 01:06:11;;;;;;;17.77;9.30;;;;;;;;;;5028393;28;20211;-79
2020/12/02 01:08:40;;;;;;;17.77;9.40;;;;;;;;;;5017087;28;20214;-79
2020/12/02 01:11:13;;;;;;;19.87;10.50;;;;;;;;;;5036832;28;20236;-80
2020/12/02 01:13:42;;;;;;;18.57;10.13;;;;;;;;;;5029693;28;20208;-79
2020/12/02 01:16:14;;;;;;;19.27;10.20;;;;;;;;;;5039792;28;20231;-79
2020/12/02 01:18:42;;;;;;;17.27;10.47;;;;;;;;;;5045326;28;20203;-79
2020/12/02 01:21:22;;;;;;;19.70;10.60;;;;;;;;;;5017027;28;20224;-79
2020/12/02 01:23:53;;;;;;;18.90;10.20;;;;;;;;;;5023690;28;20212;-79
2020/12/02 01:26:24;;;;;;;17.17;9.20;;;;;;;;;;5033821;28;20208;-79
2020/12/02 01:28:52;;;;;;;17.47;10.20;;;;;;;;;;5033390;28;20555;-79
2020/12/02 01:31:20;;;;;;;16.87;9.77;;;;;;;;;;5010174;28;20839;-79
2020/12/02 01:33:48;;;;;;;19.90;10.67;;;;;;;;;;5055909;28;20683;-79
2020/12/02 01:36:17;;;;;;;19.67;9.93;;;;;;;;;;5011648;28;20203;-78
2020/12/02 01:38:44;;;;;;;21.30;10.57;;;;;;;;;;5038657;28;20223;-78
2020/12/02 01:41:12;;;;;;;20.63;10.87;;;;;;;;;;5038919;28;20236;-79
2020/12/02 01:43:40;;;;;;;20.00;11.10;;;;;;;;;;5019330;28;20235;-79
2020/12/02 01:46:16;;;;;;;19.80;10.93;;;;;;;;;;5010661;28;20554;-79
2020/12/02 01:48:57;;;;;;;19.70;10.17;;;;;;;;;;5029598;28;20686;-79
2020/12/02 01:51:46;;;;;;;18.97;10.90;;;;;;;;;;5030549;28;20236;-78
2020/12/02 01:54:16;;;;;;;19.07;10.30;;;;;;;;;;5030859;28;20208;-79
2020/12/02 01:56:47;;;;;;;20.30;10.53;;;;;;;;;;5017423;28;20208;-78
2020/12/02 01:59:19;;;;;;;16.37;9.23;;;;;;;;;;5041172;28;20212;-79
2020/12/02 02:01:55;;;;;;;19.40;10.30;;;;;;;;;;5055547;28;20235;-79
2020/12/02 02:04:33;;;;;;;18.87;9.70;;;;;;;;;;5030932;28;20207;-78
2020/12/02 02:07:10;;;;;;;17.87;9.27;;;;;;;;;;5018339;28;20214;-79
2020/12/02 02:09:38;;;;;;;19.70;10.50;;;;;;;;;;5037161;28;20212;-78
2020/12/02 02:12:32;;;;;;;17.37;9.00;;;;;;;;;;5026585;28;20231;-78
2020/12/02 02:15:10;;;;;;;17.30;9.80;;;;;;;;;;5041746;28;20226;-78
2020/12/02 02:17:38;;;;;;;18.47;10.47;;;;;;;;;;5025919;28;20215;-78
2020/12/02 02:20:10;;;;;;;19.63;10.40;;;;;;;;;;5025111;28;20205;-77
2020/12/02 02:22:37;;;;;;;16.57;9.30;;;;;;;;;;5031816;28;20243;-78
2020/12/02 02:25:07;;;;;;;16.97;9.30;;;;;;;;;;5038290;28;20207;-78
2020/12/02 02:27:35;;;;;;;19.10;9.93;;;;;;;;;;5016967;28;20565;-78
2020/12/02 02:30:03;;;;;;;18.80;10.37;;;;;;;;;;5035868;28;20800;-78
2020/12/02 02:32:32;;;;;;;17.83;9.83;;;;;;;;;;5035876;28;20238;-78
2020/12/02 02:35:00;;;;;;;18.87;10.33;;;;;;;;;;5027109;28;20207;-77
2020/12/02 02:37:30;;;;;;;16.97;10.00;;;;;;;;;;5012073;28;20203;-78
2020/12/02 02:39:59;;;;;;;17.97;9.53;;;;;;;;;;5024794;28;20575;-77
2020/12/02 02:42:31;;;;;;;18.43;9.93;;;;;;;;;;5029914;28;20556;-77
2020/12/02 02:45:01;;;;;;;20.57;10.83;;;;;;;;;;5031447;28;20215;-78
2020/12/02 02:47:28;;;;;;;19.70;9.47;;;;;;;;;;5045268;28;20216;-78
2020/12/02 02:49:56;;;;;;;18.23;9.67;;;;;;;;;;5030231;28;20673;-78
2020/12/02 02:52:24;;;;;;;18.83;9.93;;;;;;;;;;5024144;28;20304;-78
2020/12/02 02:54:51;;;;;;;19.53;10.70;;;;;;;;;;5013591;28;20211;-78
2020/12/02 02:57:19;;;;;;;19.60;10.40;;;;;;;;;;5024484;28;20204;-78
2020/12/02 02:59:46;;;;;;;19.73;10.83;;;;;;;;;;5037162;28;20657;-77
2020/12/02 03:02:15;;;;;;;18.53;10.17;;;;;;;;;;5033912;28;20244;-78
2020/12/02 03:04:42;;;;;;;19.57;10.17;;;;;;;;;;5033051;28;20271;-79
2020/12/02 03:07:13;;;;;;;18.93;10.17;;;;;;;;;;5038671;28;20646;-79
2020/12/02 03:09:41;;;;;;;19.47;9.33;;;;;;;;;;5023292;28;20226;-79
2020/12/02 03:12:09;;;;;;;17.00;9.80;;;;;;;;;;5029663;28;20235;-79
2020/12/02 03:14:41;;;;;;;22.37;9.27;;;;;;;;;;5024176;28;20212;-79
2020/12/02 03:17:11;;;;;;;18.87;10.33;;;;;;;;;;5047886;28;20213;-77
2020/12/02 03:19:44;;;;;;;18.00;9.83;;;;;;;;;;5021756;28;20215;-77
2020/12/02 03:22:12;;;;;;;18.63;9.40;;;;;;;;;;5008970;28;20228;-78
2020/12/02 03:24:41;;;;;;;19.27;10.60;;;;;;;;;;5045009;28;20207;-78
2020/12/02 03:27:09;;;;;;;20.37;9.80;;;;;;;;;;5031107;28;20216;-78
2020/12/02 03:29:36;;;;;;;18.80;10.60;;;;;;;;;;5007898;28;20224;-78
2020/12/02 03:32:04;;;;;;;21.03;10.03;;;;;;;;;;5043355;28;20239;-77
2020/12/02 03:34:34;;;;;;;23.10;10.73;;;;;;;;;;5034068;28;20204;-79
2020/12/02 03:37:02;;;;;;;18.80;9.80;;;;;;;;;;5033906;28;20223;-79
2020/12/02 03:39:30;;;;;;;19.50;10.23;;;;;;;;;;5012465;28;20215;-78
2020/12/02 03:41:58;;;;;;;19.60;10.07;;;;;;;;;;5029237;28;20228;-79
2020/12/02 03:44:25;;;;;;;20.80;10.20;;;;;;;;;;5035667;28;20215;-78
2020/12/02 03:46:53;;;;;;;18.03;10.60;;;;;;;;;;5010472;28;20211;-79
2020/12/02 03:49:20;;;;;;;19.33;9.73;;;;;;;;;;5030932;28;20216;-78
2020/12/02 03:51:48;;;;;;;19.90;10.53;;;;;;;;;;5022892;28;20223;-79
2020/12/02 03:54:16;;;;;;;19.97;9.60;;;;;;;;;;5049306;28;20212;-78
2020/12/02 03:56:44;;;;;;;22.63;11.67;;;;;;;;;;5040968;28;20207;-78
2020/12/02 03:59:11;;;;;;;18.77;10.67;;;;;;;;;;5021255;28;20219;-79
2020/12/02 04:01:39;;;;;;;21.80;11.07;;;;;;;;;;5046056;28;20227;-78
2020/12/02 04:04:06;;;;;;;20.87;10.43;;;;;;;;;;5030741;28;20656;-78
2020/12/02 04:06:34;;;;;;;22.13;10.97;;;;;;;;;;5045613;28;20199;-79
2020/12/02 04:09:02;;;;;;;21.70;10.40;;;;;;;;;;5038265;28;20212;-81
2020/12/02 04:11:30;;;;;;;22.30;11.30;;;;;;;;;;5030830;28;20238;-79
2020/12/02 04:13:59;;;;;;;20.07;10.53;;;;;;;;;;5029629;28;20211;-77
2020/12/02 04:16:26;;;;;;;22.20;11.40;;;;;;;;;;5032655;28;20195;-78
2020/12/02 04:18:54;;;;;;;21.83;11.57;;;;;;;;;;5032655;28;20501;-78
2020/12/02 04:21:24;;;;;;;18.43;10.13;;;;;;;;;;5015425;28;20232;-77
2020/12/02 04:23:52;;;;;;;20.77;10.70;;;;;;;;;;5023452;28;20218;-78
2020/12/02 04:26:20;;;;;;;23.47;11.47;;;;;;;;;;5019821;28;20210;-78
2020/12/02 04:28:49;;;;;;;21.57;11.00;;;;;;;;;;5030050;28;20218;-78
2020/12/02 04:31:16;;;;;;;24.47;12.50;;;;;;;;;;5030391;28;20238;-77
2020/12/02 04:33:44;;;;;;;25.07;12.30;;;;;;;;;;5038984;28;20216;-77
2020/12/02 04:36:13;;;;;;;23.10;10.97;;;;;;;;;;5048097;28;20215;-78
2020/12/02 04:38:41;;;;;;;23.43;11.67;;;;;;;;;;5049134;28;20212;-78
2020/12/02 04:41:10;;;;;;;21.13;10.53;;;;;;;;;;5007791;28;20468;-76
2020/12/02 04:43:39;;;;;;;24.10;11.40;;;;;;;;;;5028326;28;20663;-77
2020/12/02 04:46:14;;;;;;;23.53;11.83;;;;;;;;;;5011753;28;20204;-77
2020/12/02 04:48:43;;;;;;;23.33;11.83;;;;;;;;;;5035526;28;20211;-78
2020/12/02 04:51:14;;;;;;;23.60;11.40;;;;;;;;;;5040942;28;20701;-78
2020/12/02 04:53:44;;;;;;;22.70;9.83;;;;;;;;;;5035993;28;20212;-77
2020/12/02 04:56:11;;;;;;;25.23;12.17;;;;;;;;;;5066338;28;20211;-79
2020/12/02 04:58:40;;;;;;;23.53;11.83;;;;;;;;;;5054431;28;20212;-77
2020/12/02 05:01:17;;;;;;;26.83;12.80;;;;;;;;;;5038950;28;20713;-79
2020/12/02 05:04:01;;;;;;;23.23;11.37;;;;;;;;;;5016136;28;20216;-78
2020/12/02 05:06:32;;;;;;;25.67;13.03;;;;;;;;;;5028833;28;20219;-78
2020/12/02 05:09:07;;;;;;;25.80;12.50;;;;;;;;;;5014028;28;20200;-77
2020/12/02 05:11:35;;;;;;;22.37;11.70;;;;;;;;;;5057979;28;20219;-79
2020/12/02 05:14:04;;;;;;;24.83;11.20;;;;;;;;;;5050708;28;20210;-79
2020/12/02 05:16:33;;;;;;;26.00;13.03;;;;;;;;;;5052326;28;20200;-77
2020/12/02 05:19:06;;;;;;;23.37;11.67;;;;;;;;;;5048876;28;20211;-78
2020/12/02 05:21:40;;;;;;;23.60;13.43;;;;;;;;;;5042867;28;20754;-77
2020/12/02 05:24:12;;;;;;;24.53;13.10;;;;;;;;;;5046282;28;20204;-77
2020/12/02 05:26:42;;;;;;;21.80;12.00;;;;;;;;;;5043308;28;20204;-78
2020/12/02 05:29:29;;;;;;;23.07;12.73;;;;;;;;;;5039895;28;20216;-78
2020/12/02 05:32:04;;;;;;;25.87;12.57;;;;;;;;;;5037029;28;20600;-77
2020/12/02 05:34:33;;;;;;;23.90;12.40;;;;;;;;;;5019348;28;20204;-78
2020/12/02 05:37:05;;;;;;;21.40;12.77;;;;;;;;;;5047066;28;20212;-78
2020/12/02 05:39:41;;;;;;;25.20;11.93;;;;;;;;;;5026337;28;20214;-77
2020/12/02 05:42:18;;;;;;;23.53;12.27;;;;;;;;;;5042623;28;20235;-78
2020/12/02 05:44:49;;;;;;;23.03;11.30;;;;;;;;;;5049717;28;20211;-77
2020/12/02 05:47:19;;;;;;;20.50;11.60;;;;;;;;;;5019420;28;20208;-77
2020/12/02 05:49:50;;;;;;;24.87;12.40;;;;;;;;;;5020043;28;20199;-78
2020/12/02 05:52:21;;;;;;;25.93;13.07;;;;;;;;;;5016428;28;20228;-78
2020/12/02 05:54:49;;;;;;;24.47;11.87;;;;;;;;;;5033145;28;20203;-79
2020/12/02 05:57:17;;;;;;;20.10;10.93;;;;;;;;;;5049614;28;20219;-78
2020/12/02 05:59:49;;;;;;;21.50;12.07;;;;;;;;;;5052743;28;20211;-79
2020/12/02 06:02:19;;;;;;;20.00;11.47;;;;;;;;;;5036799;28;20235;-78
2020/12/02 06:04:50;;;;;;;22.33;11.33;;;;;;;;;;5035497;28;20204;-78
2020/12/02 06:07:19;;;;;;;22.80;11.10;;;;;;;;;;5013360;28;20204;-78
2020/12/02 06:09:48;;;;;;;22.47;12.30;;;;;;;;;;5026611;28;20211;-78
2020/12/02 06:12:18;;;;;;;23.77;12.53;;;;;;;;;;5030978;28;20709;-79
2020/12/02 06:14:46;;;;;;;19.33;11.73;;;;;;;;;;5032598;28;20196;-77
2020/12/02 06:17:25;;;;;;;22.87;10.63;;;;;;;;;;5029956;28;20197;-76
2020/12/02 06:19:53;;;;;;;22.50;12.30;;;;;;;;;;5018344;28;20310;-77
2020/12/02 06:22:43;;;;;;;22.00;11.33;;;;;;;;;;5021026;28;20236;-77
2020/12/02 06:25:43;;;;;;;19.93;10.97;;;;;;;;;;5034421;28;20203;-77
2020/12/02 06:28:11;;;;;;;21.33;11.00;;;;;;;;;;5011115;28;20203;-78
2020/12/02 06:30:39;;;;;;;22.07;11.00;;;;;;;;;;5013060;28;20214;-78
2020/12/02 06:33:19;;;;;;;18.63;10.40;;;;;;;;;;5039843;28;20799;-78
2020/12/02 06:35:52;;;;;;;20.43;9.90;;;;;;;;;;5048867;28;20211;-78
2020/12/02 06:38:27;;;;;;;23.57;11.07;;;;;;;;;;5047350;28;20204;-77
2020/12/02 06:41:21;;;;;;;23.17;10.37;;;;;;;;;;5039789;28;20322;-77
2020/12/02 06:43:57;;;;;;;19.33;9.60;;;;;;;;;;5030737;28;20212;-77
2020/12/02 06:46:59;;;;;;;18.97;9.63;;;;;;;;;;5012703;28;20542;-79
2020/12/02 06:49:30;;;;;;;36.80;11.20;;;;;;;;;;5032494;28;20199;-79
2020/12/02 06:52:04;;;;;;;15.00;9.00;;;;;;;;;;5034682;28;20487;-78
2020/12/02 06:54:36;;;;;;;18.30;10.53;;;;;;;;;;5027309;28;20208;-78
2020/12/02 06:57:08;;;;;;;21.10;10.53;;;;;;;;;;5046616;28;20267;-77
2020/12/02 06:59:49;;;;;;;16.83;9.07;;;;;;;;;;5027610;28;20215;-77
2020/12/02 07:02:28;;;;;;;16.07;8.70;;;;;;;;;;5020914;28;20613;-78
2020/12/02 07:04:58;;;;;;;15.87;9.57;;;;;;;;;;5030791;28;20223;-78
2020/12/02 07:07:25;;;;;;;15.97;9.40;;;;;;;;;;5033174;28;20200;-77
2020/12/02 07:09:53;;;;;;;17.17;9.57;;;;;;;;;;5023872;28;20212;-78
2020/12/02 07:12:21;;;;;;;15.10;9.33;;;;;;;;;;5020714;28;20232;-78
2020/12/02 07:14:49;;;;;;;14.00;8.17;;;;;;;;;;5006649;28;20200;-77
2020/12/02 07:17:21;;;;;;;14.50;7.97;;;;;;;;;;5045805;28;20199;-78
2020/12/02 07:19:48;;;;;;;15.50;9.00;;;;;;;;;;5047103;28;20194;-78
2020/12/02 07:22:20;;;;;;;18.23;9.10;;;;;;;;;;5043727;28;20220;-78
2020/12/02 07:24:49;;;;;;;16.03;9.10;;;;;;;;;;5041185;28;20220;-78
2020/12/02 07:27:19;;;;;;;14.83;8.43;;;;;;;;;;5026202;28;20223;-78
2020/12/02 07:29:56;;;;;;;14.80;8.27;;;;;;;;;;5020683;28;20690;-77
2020/12/02 07:32:25;;;;;;;16.27;8.47;;;;;;;;;;5016377;28;20227;-77
2020/12/02 07:35:00;;;;;;;18.13;8.53;;;;;;;;;;5012748;28;20559;-78
2020/12/02 07:37:28;;;;;;;23.97;9.73;;;;;;;;;;5042226;28;20208;-78
2020/12/02 07:39:58;;;;;;;15.73;9.13;;;;;;;;;;5022652;28;20685;-78
2020/12/02 07:42:29;;;;;;;14.10;8.27;;;;;;;;;;5026358;28;20239;-78
2020/12/02 07:45:03;;;;;;;13.23;8.13;;;;;;;;;;5005404;28;20196;-77
2020/12/02 07:47:33;;;;;;;14.83;8.97;;;;;;;;;;5009010;28;20220;-77
2020/12/02 07:50:04;;;;;;;15.30;7.87;;;;;;;;;;5042260;28;20212;-78
2020/12/02 07:52:37;;;;;;;15.67;7.93;;;;;;;;;;5048477;28;20228;-78
2020/12/02 07:55:06;;;;;;;14.60;8.37;;;;;;;;;;5045031;28;20216;-78
2020/12/02 07:57:35;;;;;;;13.37;7.67;;;;;;;;;;5044640;28;20558;-77
2020/12/02 08:00:15;;;;;;;18.93;7.87;;;;;;;;;;5027942;28;20201;-77
2020/12/02 08:02:44;;;;;;;13.37;8.27;;;;;;;;;;5024567;28;20241;-78
2020/12/02 08:05:34;;;;;;;14.50;7.93;;;;;;;;;;5038654;28;20215;-78
2020/12/02 08:08:02;;;;;;;13.47;8.10;;;;;;;;;;5029695;28;20219;-77
2020/12/02 08:10:33;;;;;;;14.90;8.83;;;;;;;;;;5026274;28;20554;-77
2020/12/02 08:13:04;;;;;;;13.03;8.40;;;;;;;;;;5021634;28;20223;-78
2020/12/02 08:15:43;;;;;;;12.83;7.50;;;;;;;;;;5026211;28;20601;-77
2020/12/02 08:18:15;;;;;;;15.80;8.80;;;;;;;;;;5029308;28;20211;-77
2020/12/02 08:20:44;;;;;;;13.30;8.33;;;;;;;;;;5045267;28;20215;-77
2020/12/02 08:23:15;;;;;;;13.23;8.20;;;;;;;;;;5022044;28;20207;-78
2020/12/02 08:25:57;;;;;;;13.57;8.37;;;;;;;;;;5040012;28;20211;-78
2020/12/02 08:28:27;;;;;;;11.50;7.77;;;;;;;;;;5022271;28;20215;-78
2020/12/02 08:31:02;;;;;;;12.27;7.17;;;;;;;;;;5002223;28;20258;-78
2020/12/02 08:33:30;;;;;;;11.37;7.73;;;;;;;;;;5029465;28;20216;-78
2020/12/02 08:36:05;;;;;;;10.67;6.97;;;;;;;;;;5017095;28;20212;-78
2020/12/02 08:38:35;;;;;;;12.17;7.80;;;;;;;;;;5008665;28;21490;-78
2020/12/02 08:41:03;;;;;;;11.10;6.70;;;;;;;;;;5011068;28;20231;-77
2020/12/02 08:43:36;;;;;;;12.07;7.83;;;;;;;;;;5035299;28;20227;-77
2020/12/02 08:46:12;;;;;;;10.57;6.70;;;;;;;;;;5039885;28;20219;-77
2020/12/02 08:48:41;;;;;;;11.20;7.17;;;;;;;;;;5028928;28;20557;-77
2020/12/02 08:51:12;;;;;;;13.27;8.67;;;;;;;;;;5024946;28;20228;-77
2020/12/02 08:53:40;;;;;;;11.10;7.50;;;;;;;;;;4996705;28;20220;-78
2020/12/02 08:56:22;;;;;;;11.50;6.90;;;;;;;;;;5035588;28;20212;-78
2020/12/02 08:58:49;;;;;;;10.87;7.00;;;;;;;;;;5013746;28;20206;-78
2020/12/02 09:01:17;;;;;;;11.93;7.43;;;;;;;;;;5026109;28;20232;-79
2020/12/02 09:03:44;;;;;;;13.50;7.53;;;;;;;;;;5027814;28;20468;-77
2020/12/02 09:06:15;;;;;;;12.03;6.83;;;;;;;;;;5024963;28;20204;-77
2020/12/02 09:08:43;;;;;;;10.67;6.97;;;;;;;;;;5046543;28;20576;-78
2020/12/02 09:11:11;;;;;;;11.37;6.80;;;;;;;;;;5033326;28;20228;-78
2020/12/02 09:13:39;;;;;;;9.87;7.10;;;;;;;;;;5033227;28;20707;-77
2020/12/02 09:16:07;;;;;;;10.67;6.83;;;;;;;;;;5026287;28;20216;-77
2020/12/02 09:18:34;;;;;;;11.17;6.93;;;;;;;;;;5032624;28;20212;-78
2020/12/02 09:21:02;;;;;;;10.80;6.60;;;;;;;;;;5030806;28;20235;-76
2020/12/02 09:23:29;;;;;;;12.57;6.50;;;;;;;;;;5029327;28;20211;-76
2020/12/02 09:25:57;;;;;;;10.40;6.83;;;;;;;;;;5019916;28;20200;-77
2020/12/02 09:28:24;;;;;;;10.30;6.13;;;;;;;;;;5031700;28;20223;-76
2020/12/02 09:30:53;;;;;;;10.53;6.53;;;;;;;;;;5046437;28;20225;-77
2020/12/02 09:33:20;;;;;;;9.57;6.47;;;;;;;;;;5036440;28;20231;-78
2020/12/02 09:35:49;;;;;;;9.93;6.60;;;;;;;;;;5024377;28;20227;-76
2020/12/02 09:38:17;;;;;;;11.33;7.40;;;;;;;;;;5054900;28;20221;-77
2020/12/02 09:41:04;;;;;;;10.23;6.90;;;;;;;;;;5023182;28;20246;-77
2020/12/02 09:43:47;;;;;;;10.57;6.50;;;;;;;;;;5031171;28;20227;-76
2020/12/02 09:46:19;;;;;;;11.90;6.90;;;;;;;;;;5032320;28;20207;-76
2020/12/02 09:48:47;;;;;;;9.87;6.67;;;;;;;;;;5024352;28;20780;-76
2020/12/02 09:51:20;;;;;;;9.70;7.27;;;;;;;;;;5036232;28;20232;-76
2020/12/02 09:53:49;;;;;;;14.90;8.27;;;;;;;;;;5034254;28;20225;-76
2020/12/02 09:56:17;;;;;;;11.37;7.37;;;;;;;;;;5033542;28;20204;-76
2020/12/02 09:58:45;;;;;;;12.83;7.47;;;;;;;;;;5051360;28;20212;-78
2020/12/02 10:01:16;;;;;;;10.20;6.70;;;;;;;;;;5038467;28;20220;-76
2020/12/02 10:04:09;;;;;;;11.87;6.47;;;;;;;;;;5038840;28;20592;-76
2020/12/02 10:06:52;;;;;;;13.23;8.40;;;;;;;;;;5031470;28;20200;-76
2020/12/02 10:09:46;;;;;;;11.27;7.30;;;;;;;;;;5033668;28;20212;-76
2020/12/02 10:12:17;;;;;;;10.97;7.17;;;;;;;;;;5048872;28;20593;-76
2020/12/02 10:15:06;;;;;;;11.00;7.17;;;;;;;;;;5037818;28;20232;-75
2020/12/02 10:18:04;;;;;;;11.13;7.10;;;;;;;;;;5026106;28;20670;-76
2020/12/02 10:20:36;;;;;;;10.00;6.47;;;;;;;;;;5028987;28;20193;-76
2020/12/02 10:23:17;;;;;;;12.60;7.80;;;;;;;;;;5027548;28;20204;-77
2020/12/02 10:26:02;;;;;;;12.70;7.37;;;;;;;;;;5031531;28;20219;-77
2020/12/02 10:28:32;;;;;;;12.30;7.10;;;;;;;;;;5026313;28;20569;-75
2020/12/02 10:31:10;;;;;;;11.00;6.80;;;;;;;;;;5027849;28;20224;-76
2020/12/02 10:33:54;;;;;;;13.60;7.07;;;;;;;;;;5049875;28;20220;-76
2020/12/02 10:36:25;;;;;;;12.37;7.33;;;;;;;;;;5027089;28;20593;-78
2020/12/02 10:38:55;;;;;;;8.87;5.87;;;;;;;;;;5029124;28;20227;-76
2020/12/02 10:41:34;;;;;;;10.57;6.67;;;;;;;;;;5023877;28;20225;-76
2020/12/02 10:44:18;;;;;;;13.47;7.67;;;;;;;;;;5029092;28;20569;-76
2020/12/02 10:46:57;;;;;;;11.23;7.27;;;;;;;;;;5027488;28;20212;-77
2020/12/02 10:49:29;;;;;;;11.23;7.00;;;;;;;;;;5041518;28;20207;-76
2020/12/02 10:51:59;;;;;;;11.67;7.23;;;;;;;;;;5048798;28;20600;-77
2020/12/02 10:54:32;;;;;;;12.27;6.70;;;;;;;;;;5029982;28;20232;-76
2020/12/02 10:57:00;;;;;;;11.20;7.23;;;;;;;;;;5020643;28;20242;-76
2020/12/02 10:59:27;;;;;;;12.77;7.40;;;;;;;;;;5039476;28;20215;-76
2020/12/02 11:01:55;;;;;;;13.13;7.63;;;;;;;;;;5027639;28;20246;-76
2020/12/02 11:04:22;;;;;;;12.77;7.57;;;;;;;;;;5007725;28;20201;-76
2020/12/02 11:07:03;;;;;;;10.10;6.63;;;;;;;;;;5028982;28;20199;-76
2020/12/02 11:09:47;;;;;;;12.33;7.37;;;;;;;;;;5032005;28;20211;-76
2020/12/02 11:12:34;;;;;;;13.93;7.50;;;;;;;;;;5013216;28;20224;-76
2020/12/02 11:15:11;;;;;;;13.23;6.97;;;;;;;;;;5024379;28;20235;-76
2020/12/02 11:17:59;;;;;;;13.27;7.67;;;;;;;;;;5055703;28;20211;-75
2020/12/02 11:20:32;;;;;;;11.27;6.90;;;;;;;;;;5061276;28;20204;-75
2020/12/02 11:23:06;;;;;;;17.90;7.47;;;;;;;;;;5046821;28;20204;-77
2020/12/02 11:25:42;;;;;;;13.47;7.57;;;;;;;;;;5018487;28;20207;-77
2020/12/02 11:28:10;;;;;;;11.97;7.27;;;;;;;;;;5018622;28;20203;-77
2020/12/02 11:30:40;;;;;;;10.53;6.23;;;;;;;;;;5022531;28;20215;-77
2020/12/02 11:33:28;;;;;;;12.03;6.90;;;;;;;;;;5022337;28;20555;-77
2020/12/02 11:36:09;;;;;;;15.27;6.63;;;;;;;;;;5019689;28;20239;-76
2020/12/02 11:38:45;;;;;;;11.23;6.57;;;;;;;;;;5022786;28;20184;-77
2020/12/02 11:41:17;;;;;;;10.53;6.87;;;;;;;;;;5017821;28;20228;-77
2020/12/02 11:43:48;;;;;;;10.20;5.90;;;;;;;;;;5020991;28;20200;-77
2020/12/02 11:46:19;;;;;;;10.57;6.73;;;;;;;;;;5022148;28;20217;-76
2020/12/02 11:48:52;;;;;;;15.60;7.03;;;;;;;;;;5016493;28;20231;-76
2020/12/02 11:51:23;;;;;;;14.03;6.90;;;;;;;;;;5022876;28;20290;-76
2020/12/02 11:53:55;;;;;;;9.97;6.23;;;;;;;;;;5017838;28;20212;-76
2020/12/02 11:56:25;;;;;;;12.23;7.00;;;;;;;;;;5014521;28;20200;-80
2020/12/02 11:58:59;;;;;;;10.70;6.53;;;;;;;;;;5011716;28;20266;-77
2020/12/02 12:01:40;;;;;;;13.17;5.90;;;;;;;;;;5014371;28;20220;-77
2020/12/02 12:04:15;;;;;;;11.87;6.97;;;;;;;;;;5029001;28;20220;-77
2020/12/02 12:06:44;;;;;;;12.47;6.73;;;;;;;;;;5019538;28;20220;-76
2020/12/02 12:09:16;;;;;;;12.10;6.70;;;;;;;;;;5020052;28;20201;-77
2020/12/02 12:11:44;;;;;;;12.70;6.90;;;;;;;;;;5025874;28;20235;-77
2020/12/02 12:14:18;;;;;;;12.93;7.17;;;;;;;;;;5018400;28;20196;-77
2020/12/02 12:16:58;;;;;;;14.30;7.10;;;;;;;;;;5020285;28;20208;-77
2020/12/02 12:19:34;;;;;;;12.37;6.77;;;;;;;;;;5022986;28;20208;-78
2020/12/02 12:22:26;;;;;;;11.83;6.40;;;;;;;;;;5024841;28;20224;-77
2020/12/02 12:24:57;;;;;;;14.10;7.03;;;;;;;;;;5020641;28;20205;-77
2020/12/02 12:27:25;;;;;;;12.33;6.47;;;;;;;;;;5008751;28;20205;-77
2020/12/02 12:29:54;;;;;;;12.87;6.93;;;;;;;;;;5029184;28;20835;-77
2020/12/02 12:32:36;;;;;;;12.63;7.13;;;;;;;;;;5033651;28;20543;-77
2020/12/02 12:35:09;;;;;;;10.57;6.17;;;;;;;;;;5031321;28;20220;-77
2020/12/02 12:37:47;;;;;;;12.67;6.77;;;;;;;;;;5062349;28;20199;-78
2020/12/02 12:40:18;;;;;;;14.73;6.97;;;;;;;;;;5051149;28;20212;-78
2020/12/02 12:42:46;;;;;;;10.63;6.67;;;;;;;;;;5051243;28;20789;-80
2020/12/02 12:45:18;;;;;;;12.87;6.97;;;;;;;;;;5050925;28;20223;-78
2020/12/02 12:47:47;;;;;;;11.23;6.40;;;;;;;;;;5061270;28;20257;-77
2020/12/02 12:50:19;;;;;;;16.13;7.03;;;;;;;;;;5046901;28;20208;-77
2020/12/02 12:53:03;;;;;;;10.70;6.63;;;;;;;;;;5029623;28;20219;-77
2020/12/02 12:55:32;;;;;;;12.57;6.97;;;;;;;;;;5026821;28;20220;-77
2020/12/02 12:58:08;;;;;;;13.07;7.07;;;;;;;;;;5027049;28;20208;-77
2020/12/02 13:00:39;;;;;;;13.30;7.03;;;;;;;;;;5012506;28;20689;-77
2020/12/02 13:03:12;;;;;;;14.27;6.83;;;;;;;;;;5045717;28;20666;-77
2020/12/02 13:05:40;;;;;;;13.07;6.77;;;;;;;;;;5016416;28;20215;-77
2020/12/02 13:08:15;;;;;;;12.50;6.57;;;;;;;;;;5019501;28;20214;-77
2020/12/02 13:10:51;;;;;;;13.83;7.33;;;;;;;;;;5024356;28;20200;-77
2020/12/02 13:13:33;;;;;;;12.63;6.90;;;;;;;;;;5017449;28;20218;-77
2020/12/02 13:16:04;;;;;;;13.80;6.90;;;;;;;;;;5029806;28;20235;-79
2020/12/02 13:18:50;;;;;;;13.33;7.27;;;;;;;;;;5032305;28;20217;-77
2020/12/02 13:21:23;;;;;;;12.67;7.47;;;;;;;;;;5028052;28;20224;-77
2020/12/02 13:23:56;;;;;;;11.90;6.67;;;;;;;;;;5024440;28;20208;-77
2020/12/02 13:26:26;;;;;;;12.20;6.83;;;;;;;;;;5024634;28;20200;-77
2020/12/02 13:29:01;;;;;;;18.20;7.77;;;;;;;;;;5028627;28;20196;-77
2020/12/02 13:31:31;;;;;;;13.77;6.40;;;;;;;;;;4999929;28;20236;-76
2020/12/02 13:33:59;;;;;;;14.13;8.10;;;;;;;;;;5043325;28;20212;-77
2020/12/02 13:36:29;;;;;;;13.30;6.90;;;;;;;;;;5014685;28;20231;-77
2020/12/02 13:38:59;;;;;;;16.77;7.40;;;;;;;;;;5029596;28;20238;-77
2020/12/02 13:41:32;;;;;;;14.77;8.17;;;;;;;;;;5050413;28;20227;-77
2020/12/02 13:44:02;;;;;;;14.30;7.80;;;;;;;;;;5044276;28;20208;-78
2020/12/02 13:46:30;;;;;;;16.23;7.80;;;;;;;;;;5054670;28;20202;-78
2020/12/02 13:48:59;;;;;;;14.33;6.90;;;;;;;;;;5059511;28;20211;-77
2020/12/02 13:51:58;;;;;;;15.70;7.80;;;;;;;;;;5012392;28;20217;-76
2020/12/02 13:54:35;;;;;;;15.93;7.63;;;;;;;;;;5008120;28;20207;-77
2020/12/02 13:57:10;;;;;;;13.07;6.87;;;;;;;;;;5037526;28;20211;-77
2020/12/02 13:59:47;;;;;;;16.83;7.43;;;;;;;;;;5045131;28;20200;-77
2020/12/02 14:02:26;;;;;;;13.00;7.73;;;;;;;;;;5044702;28;20242;-78
2020/12/02 14:05:02;;;;;;;13.23;6.90;;;;;;;;;;5047615;28;20212;-78
2020/12/02 14:07:34;;;;;;;15.80;7.20;;;;;;;;;;5045631;28;20226;-77
2020/12/02 14:10:09;;;;;;;11.00;6.37;;;;;;;;;;5028891;28;20677;-77
2020/12/02 14:12:40;;;;;;;15.53;6.77;;;;;;;;;;5003014;28;20231;-77
2020/12/02 14:15:09;;;;;;;18.07;7.93;;;;;;;;;;5040514;28;20220;-77
2020/12/02 14:17:37;;;;;;;16.03;7.53;;;;;;;;;;5012486;28;20217;-78
2020/12/02 14:20:05;;;;;;;14.77;8.33;;;;;;;;;;5029749;28;20220;-77
2020/12/02 14:22:34;;;;;;;14.17;8.00;;;;;;;;;;5035121;28;20235;-77
2020/12/02 14:25:05;;;;;;;16.87;7.30;;;;;;;;;;5023183;28;20213;-77
2020/12/02 14:27:35;;;;;;;15.00;7.90;;;;;;;;;;5055241;28;20231;-77
2020/12/02 14:30:08;;;;;;;14.90;7.43;;;;;;;;;;5046481;28;20197;-77
2020/12/02 14:32:36;;;;;;;13.33;6.97;;;;;;;;;;5043938;28;20228;-77
2020/12/02 14:35:03;;;;;;;15.13;7.40;;;;;;;;;;5049480;28;20204;-77
2020/12/02 14:37:31;;;;;;;13.97;6.67;;;;;;;;;;5032912;28;20563;-77
2020/12/02 14:39:59;;;;;;;12.97;7.00;;;;;;;;;;5036159;28;20204;-77
2020/12/02 14:42:26;;;;;;;16.60;7.50;;;;;;;;;;5019262;28;20231;-77
2020/12/02 14:44:54;;;;;;;13.87;6.43;;;;;;;;;;5034373;28;20207;-77
2020/12/02 14:47:22;;;;;;;12.27;7.00;;;;;;;;;;5034987;28;20208;-77
2020/12/02 14:49:50;;;;;;;12.30;6.30;;;;;;;;;;5048470;28;20219;-77
2020/12/02 14:52:18;;;;;;;12.53;6.53;;;;;;;;;;5037173;28;20235;-77
2020/12/02 14:54:45;;;;;;;14.13;6.90;;;;;;;;;;5020380;28;20204;-77